sensor_id;sensor_type;location;lat;lon;timestamp;P1;durP1;ratioP1;P2;durP2;ratioP2
46589;SDS011;32313;48.722;9.362;2023-07-29T00:01:35;8.87;;;7.97;;
46589;SDS011;32313;48.722;9.362;2023-07-29T00:04:01;9.50;;;7.37;;
46589;SDS011;32313;48.722;9.362;2023-07-29T00:06:27;8.73;;;7.30;;
46589;SDS011;32313;48.722;9.362;2023-07-29T00:08:53;8.77;;;7.43;;
46589;SDS011;32313;48.722;9.362;2023-07-29T00:11:19;8.67;;;7.83;;
46589;SDS011;32313;48.722;9.362;2023-07-29T00:13:44;7.87;;;7.07;;
46589;SDS011;32313;48.722;9.362;2023-07-29T00:16:12;7.93;;;6.40;;
46589;SDS011;32313;48.722;9.362;2023-07-29T00:18:38;7.60;;;6.80;;
46589;SDS011;32313;48.722;9.362;2023-07-29T00:21:03;7.20;;;6.50;;
46589;SDS011;32313;48.722;9.362;2023-07-29T00:23:29;8.07;;;6.00;;
46589;SDS011;32313;48.722;9.362;2023-07-29T00:25:55;6.90;;;5.43;;
46589;SDS011;32313;48.722;9.362;2023-07-29T00:28:20;5.50;;;5.00;;
46589;SDS011;32313;48.722;9.362;2023-07-29T00:30:46;6.83;;;5.50;;
46589;SDS011;32313;48.722;9.362;2023-07-29T00:33:11;6.57;;;5.80;;
46589;SDS011;32313;48.722;9.362;2023-07-29T00:35:37;6.13;;;5.43;;
46589;SDS011;32313;48.722;9.362;2023-07-29T00:38:03;7.50;;;5.63;;
46589;SDS011;32313;48.722;9.362;2023-07-29T00:40:29;7.03;;;6.13;;
46589;SDS011;32313;48.722;9.362;2023-07-29T00:42:55;6.53;;;5.80;;
46589;SDS011;32313;48.722;9.362;2023-07-29T00:45:21;6.27;;;5.67;;
46589;SDS011;32313;48.722;9.362;2023-07-29T00:47:49;7.27;;;6.00;;
46589;SDS011;32313;48.722;9.362;2023-07-29T00:50:16;5.90;;;5.40;;
46589;SDS011;32313;48.722;9.362;2023-07-29T00:52:42;6.10;;;5.47;;
46589;SDS011;32313;48.722;9.362;2023-07-29T00:55:08;5.20;;;4.70;;
46589;SDS011;32313;48.722;9.362;2023-07-29T00:57:34;6.97;;;5.37;;
46589;SDS011;32313;48.722;9.362;2023-07-29T01:00:00;8.00;;;6.07;;
46589;SDS011;32313;48.722;9.362;2023-07-29T01:02:27;7.60;;;6.03;;
46589;SDS011;32313;48.722;9.362;2023-07-29T01:04:55;7.63;;;5.90;;
46589;SDS011;32313;48.722;9.362;2023-07-29T01:10:04;5.90;;;5.40;;
46589;SDS011;32313;48.722;9.362;2023-07-29T01:12:49;6.47;;;5.87;;
46589;SDS011;32313;48.722;9.362;2023-07-29T01:15:25;6.90;;;6.30;;
46589;SDS011;32313;48.722;9.362;2023-07-29T01:18:18;6.47;;;5.40;;
46589;SDS011;32313;48.722;9.362;2023-07-29T01:20:48;7.20;;;6.60;;
46589;SDS011;32313;48.722;9.362;2023-07-29T01:23:16;8.03;;;6.80;;
46589;SDS011;32313;48.722;9.362;2023-07-29T01:25:41;7.20;;;6.47;;
46589;SDS011;32313;48.722;9.362;2023-07-29T01:28:07;9.20;;;6.90;;
46589;SDS011;32313;48.722;9.362;2023-07-29T01:30:37;7.17;;;5.80;;
46589;SDS011;32313;48.722;9.362;2023-07-29T01:33:20;7.10;;;6.20;;
46589;SDS011;32313;48.722;9.362;2023-07-29T01:35:53;6.53;;;5.97;;
46589;SDS011;32313;48.722;9.362;2023-07-29T01:38:30;7.53;;;6.70;;
46589;SDS011;32313;48.722;9.362;2023-07-29T01:41:00;7.03;;;6.27;;
46589;SDS011;32313;48.722;9.362;2023-07-29T01:43:28;8.97;;;5.43;;
46589;SDS011;32313;48.722;9.362;2023-07-29T01:45:54;6.63;;;5.90;;
46589;SDS011;32313;48.722;9.362;2023-07-29T01:48:20;7.00;;;6.23;;
46589;SDS011;32313;48.722;9.362;2023-07-29T01:50:48;8.10;;;6.30;;
46589;SDS011;32313;48.722;9.362;2023-07-29T01:53:13;7.60;;;6.20;;
46589;SDS011;32313;48.722;9.362;2023-07-29T01:55:40;6.77;;;6.17;;
46589;SDS011;32313;48.722;9.362;2023-07-29T01:58:06;7.47;;;6.70;;
46589;SDS011;32313;48.722;9.362;2023-07-29T02:00:34;7.43;;;6.50;;
46589;SDS011;32313;48.722;9.362;2023-07-29T02:03:00;7.80;;;6.27;;
46589;SDS011;32313;48.722;9.362;2023-07-29T02:05:26;7.37;;;5.93;;
46589;SDS011;32313;48.722;9.362;2023-07-29T02:07:51;7.37;;;5.67;;
46589;SDS011;32313;48.722;9.362;2023-07-29T02:10:17;6.60;;;5.83;;
46589;SDS011;32313;48.722;9.362;2023-07-29T02:12:43;6.17;;;5.30;;
46589;SDS011;32313;48.722;9.362;2023-07-29T02:15:09;6.50;;;5.90;;
46589;SDS011;32313;48.722;9.362;2023-07-29T02:17:35;8.53;;;5.80;;
46589;SDS011;32313;48.722;9.362;2023-07-29T02:20:02;6.33;;;5.77;;
46589;SDS011;32313;48.722;9.362;2023-07-29T02:22:28;6.30;;;5.70;;
46589;SDS011;32313;48.722;9.362;2023-07-29T02:24:54;8.07;;;5.83;;
46589;SDS011;32313;48.722;9.362;2023-07-29T02:27:20;6.53;;;5.93;;
46589;SDS011;32313;48.722;9.362;2023-07-29T02:29:46;6.80;;;5.83;;
46589;SDS011;32313;48.722;9.362;2023-07-29T02:32:12;6.67;;;6.07;;
46589;SDS011;32313;48.722;9.362;2023-07-29T02:34:37;6.73;;;6.03;;
46589;SDS011;32313;48.722;9.362;2023-07-29T02:37:03;6.60;;;5.83;;
46589;SDS011;32313;48.722;9.362;2023-07-29T02:39:30;6.80;;;5.53;;
46589;SDS011;32313;48.722;9.362;2023-07-29T02:41:56;6.83;;;6.13;;
46589;SDS011;32313;48.722;9.362;2023-07-29T02:44:23;11.60;;;5.87;;
46589;SDS011;32313;48.722;9.362;2023-07-29T02:46:49;7.50;;;5.63;;
46589;SDS011;32313;48.722;9.362;2023-07-29T02:49:17;8.13;;;5.70;;
46589;SDS011;32313;48.722;9.362;2023-07-29T02:51:43;6.53;;;5.80;;
46589;SDS011;32313;48.722;9.362;2023-07-29T02:54:08;5.77;;;5.27;;
46589;SDS011;32313;48.722;9.362;2023-07-29T02:56:34;6.63;;;5.93;;
46589;SDS011;32313;48.722;9.362;2023-07-29T02:59:00;5.90;;;5.40;;
46589;SDS011;32313;48.722;9.362;2023-07-29T03:01:30;5.47;;;4.97;;
46589;SDS011;32313;48.722;9.362;2023-07-29T03:03:56;6.00;;;5.50;;
46589;SDS011;32313;48.722;9.362;2023-07-29T03:06:21;5.50;;;5.00;;
46589;SDS011;32313;48.722;9.362;2023-07-29T03:08:47;5.93;;;5.33;;
46589;SDS011;32313;48.722;9.362;2023-07-29T03:11:13;6.53;;;5.47;;
46589;SDS011;32313;48.722;9.362;2023-07-29T03:13:40;6.40;;;5.40;;
46589;SDS011;32313;48.722;9.362;2023-07-29T03:16:10;5.77;;;4.97;;
46589;SDS011;32313;48.722;9.362;2023-07-29T03:18:38;5.63;;;5.13;;
46589;SDS011;32313;48.722;9.362;2023-07-29T03:21:04;6.23;;;5.63;;
46589;SDS011;32313;48.722;9.362;2023-07-29T03:23:31;7.37;;;6.10;;
46589;SDS011;32313;48.722;9.362;2023-07-29T03:25:58;6.70;;;6.00;;
46589;SDS011;32313;48.722;9.362;2023-07-29T03:28:29;8.27;;;6.03;;
46589;SDS011;32313;48.722;9.362;2023-07-29T03:30:57;6.40;;;5.77;;
46589;SDS011;32313;48.722;9.362;2023-07-29T03:33:24;8.07;;;6.20;;
46589;SDS011;32313;48.722;9.362;2023-07-29T03:35:50;6.90;;;6.30;;
46589;SDS011;32313;48.722;9.362;2023-07-29T03:38:17;6.40;;;5.80;;
46589;SDS011;32313;48.722;9.362;2023-07-29T03:40:42;6.17;;;5.57;;
46589;SDS011;32313;48.722;9.362;2023-07-29T03:43:08;6.43;;;5.83;;
46589;SDS011;32313;48.722;9.362;2023-07-29T03:45:35;7.27;;;6.20;;
46589;SDS011;32313;48.722;9.362;2023-07-29T03:48:01;6.13;;;5.60;;
46589;SDS011;32313;48.722;9.362;2023-07-29T03:50:28;9.07;;;6.60;;
46589;SDS011;32313;48.722;9.362;2023-07-29T03:52:55;6.77;;;6.17;;
46589;SDS011;32313;48.722;9.362;2023-07-29T03:55:21;7.20;;;6.50;;
46589;SDS011;32313;48.722;9.362;2023-07-29T03:57:48;6.83;;;6.17;;
46589;SDS011;32313;48.722;9.362;2023-07-29T04:00:13;7.87;;;7.17;;
46589;SDS011;32313;48.722;9.362;2023-07-29T04:02:45;7.33;;;6.27;;
46589;SDS011;32313;48.722;9.362;2023-07-29T04:05:12;8.43;;;6.60;;
46589;SDS011;32313;48.722;9.362;2023-07-29T04:07:37;6.73;;;6.13;;
46589;SDS011;32313;48.722;9.362;2023-07-29T04:10:04;6.40;;;5.80;;
46589;SDS011;32313;48.722;9.362;2023-07-29T04:12:31;6.10;;;5.50;;
46589;SDS011;32313;48.722;9.362;2023-07-29T04:14:56;6.57;;;5.47;;
46589;SDS011;32313;48.722;9.362;2023-07-29T04:17:22;5.87;;;5.10;;
46589;SDS011;32313;48.722;9.362;2023-07-29T04:19:48;7.17;;;5.03;;
46589;SDS011;32313;48.722;9.362;2023-07-29T04:22:15;6.03;;;4.77;;
46589;SDS011;32313;48.722;9.362;2023-07-29T04:24:41;5.47;;;4.83;;
46589;SDS011;32313;48.722;9.362;2023-07-29T04:27:07;9.50;;;4.87;;
46589;SDS011;32313;48.722;9.362;2023-07-29T04:29:33;5.60;;;4.93;;
46589;SDS011;32313;48.722;9.362;2023-07-29T04:32:01;5.23;;;4.63;;
46589;SDS011;32313;48.722;9.362;2023-07-29T04:34:27;4.83;;;4.33;;
46589;SDS011;32313;48.722;9.362;2023-07-29T04:36:53;4.70;;;4.30;;
46589;SDS011;32313;48.722;9.362;2023-07-29T04:39:19;5.00;;;4.60;;
46589;SDS011;32313;48.722;9.362;2023-07-29T04:41:45;4.60;;;4.20;;
46589;SDS011;32313;48.722;9.362;2023-07-29T04:44:11;8.53;;;5.00;;
46589;SDS011;32313;48.722;9.362;2023-07-29T04:46:36;6.17;;;4.73;;
46589;SDS011;32313;48.722;9.362;2023-07-29T04:49:03;6.23;;;5.00;;
46589;SDS011;32313;48.722;9.362;2023-07-29T04:51:29;9.23;;;5.30;;
46589;SDS011;32313;48.722;9.362;2023-07-29T04:53:56;8.17;;;5.13;;
46589;SDS011;32313;48.722;9.362;2023-07-29T04:56:23;63.63;;;10.93;;
46589;SDS011;32313;48.722;9.362;2023-07-29T04:58:49;15.00;;;7.63;;
46589;SDS011;32313;48.722;9.362;2023-07-29T05:01:14;10.50;;;8.53;;
46589;SDS011;32313;48.722;9.362;2023-07-29T05:03:40;13.40;;;8.73;;
46589;SDS011;32313;48.722;9.362;2023-07-29T05:06:07;12.60;;;8.83;;
46589;SDS011;32313;48.722;9.362;2023-07-29T05:08:32;10.50;;;9.40;;
46589;SDS011;32313;48.722;9.362;2023-07-29T05:10:58;16.50;;;9.07;;
46589;SDS011;32313;48.722;9.362;2023-07-29T05:13:24;9.73;;;7.60;;
46589;SDS011;32313;48.722;9.362;2023-07-29T05:15:50;13.20;;;7.63;;
46589;SDS011;32313;48.722;9.362;2023-07-29T05:18:15;14.33;;;10.03;;
46589;SDS011;32313;48.722;9.362;2023-07-29T05:20:42;15.13;;;10.10;;
46589;SDS011;32313;48.722;9.362;2023-07-29T05:23:08;13.20;;;9.10;;
46589;SDS011;32313;48.722;9.362;2023-07-29T05:25:34;14.30;;;9.90;;
46589;SDS011;32313;48.722;9.362;2023-07-29T05:28:00;17.50;;;11.67;;
46589;SDS011;32313;48.722;9.362;2023-07-29T05:30:26;13.60;;;9.37;;
46589;SDS011;32313;48.722;9.362;2023-07-29T05:32:56;15.27;;;11.80;;
46589;SDS011;32313;48.722;9.362;2023-07-29T05:35:22;17.60;;;12.23;;
46589;SDS011;32313;48.722;9.362;2023-07-29T05:37:48;16.07;;;11.00;;
46589;SDS011;32313;48.722;9.362;2023-07-29T05:40:14;13.30;;;10.73;;
46589;SDS011;32313;48.722;9.362;2023-07-29T05:42:40;17.43;;;11.03;;
46589;SDS011;32313;48.722;9.362;2023-07-29T05:45:06;13.07;;;10.13;;
46589;SDS011;32313;48.722;9.362;2023-07-29T05:47:32;17.73;;;11.70;;
46589;SDS011;32313;48.722;9.362;2023-07-29T05:49:57;16.97;;;11.43;;
46589;SDS011;32313;48.722;9.362;2023-07-29T05:52:23;16.03;;;10.40;;
46589;SDS011;32313;48.722;9.362;2023-07-29T05:54:49;16.83;;;11.43;;
46589;SDS011;32313;48.722;9.362;2023-07-29T05:57:15;13.83;;;10.80;;
46589;SDS011;32313;48.722;9.362;2023-07-29T05:59:40;17.20;;;11.67;;
46589;SDS011;32313;48.722;9.362;2023-07-29T06:02:07;13.30;;;10.27;;
46589;SDS011;32313;48.722;9.362;2023-07-29T06:04:32;14.27;;;11.57;;
46589;SDS011;32313;48.722;9.362;2023-07-29T06:06:58;16.80;;;12.40;;
46589;SDS011;32313;48.722;9.362;2023-07-29T06:09:24;14.63;;;10.50;;
46589;SDS011;32313;48.722;9.362;2023-07-29T06:11:52;19.00;;;12.93;;
46589;SDS011;32313;48.722;9.362;2023-07-29T06:14:18;17.87;;;12.73;;
46589;SDS011;32313;48.722;9.362;2023-07-29T06:16:43;18.93;;;12.60;;
46589;SDS011;32313;48.722;9.362;2023-07-29T06:19:09;17.57;;;13.80;;
46589;SDS011;32313;48.722;9.362;2023-07-29T06:21:35;15.23;;;12.20;;
46589;SDS011;32313;48.722;9.362;2023-07-29T06:24:01;15.87;;;12.23;;
46589;SDS011;32313;48.722;9.362;2023-07-29T06:26:27;15.60;;;12.10;;
46589;SDS011;32313;48.722;9.362;2023-07-29T06:28:53;13.50;;;11.57;;
46589;SDS011;32313;48.722;9.362;2023-07-29T06:31:19;14.00;;;11.70;;
46589;SDS011;32313;48.722;9.362;2023-07-29T06:33:44;15.07;;;11.33;;
46589;SDS011;32313;48.722;9.362;2023-07-29T06:36:11;21.73;;;11.57;;
46589;SDS011;32313;48.722;9.362;2023-07-29T06:38:37;12.93;;;10.40;;
46589;SDS011;32313;48.722;9.362;2023-07-29T06:41:03;10.77;;;9.67;;
46589;SDS011;32313;48.722;9.362;2023-07-29T06:43:29;11.83;;;9.07;;
46589;SDS011;32313;48.722;9.362;2023-07-29T06:45:55;11.93;;;10.10;;
46589;SDS011;32313;48.722;9.362;2023-07-29T06:48:21;10.77;;;9.20;;
46589;SDS011;32313;48.722;9.362;2023-07-29T06:50:48;10.30;;;8.83;;
46589;SDS011;32313;48.722;9.362;2023-07-29T06:53:15;7.50;;;6.80;;
46589;SDS011;32313;48.722;9.362;2023-07-29T06:55:41;7.63;;;6.83;;
46589;SDS011;32313;48.722;9.362;2023-07-29T06:58:08;8.10;;;7.30;;
46589;SDS011;32313;48.722;9.362;2023-07-29T07:00:34;10.80;;;7.30;;
46589;SDS011;32313;48.722;9.362;2023-07-29T07:03:00;8.57;;;7.50;;
46589;SDS011;32313;48.722;9.362;2023-07-29T07:05:26;12.37;;;8.57;;
46589;SDS011;32313;48.722;9.362;2023-07-29T07:07:51;13.13;;;8.90;;
46589;SDS011;32313;48.722;9.362;2023-07-29T07:10:17;9.20;;;7.33;;
46589;SDS011;32313;48.722;9.362;2023-07-29T07:12:43;10.70;;;8.17;;
46589;SDS011;32313;48.722;9.362;2023-07-29T07:15:09;12.87;;;9.47;;
46589;SDS011;32313;48.722;9.362;2023-07-29T07:17:34;10.30;;;8.60;;
46589;SDS011;32313;48.722;9.362;2023-07-29T07:20:00;12.07;;;8.47;;
46589;SDS011;32313;48.722;9.362;2023-07-29T07:22:26;12.47;;;8.90;;
46589;SDS011;32313;48.722;9.362;2023-07-29T07:24:51;12.13;;;8.03;;
46589;SDS011;32313;48.722;9.362;2023-07-29T07:27:17;6.27;;;5.53;;
46589;SDS011;32313;48.722;9.362;2023-07-29T07:29:43;6.70;;;5.10;;
46589;SDS011;32313;48.722;9.362;2023-07-29T07:32:09;5.67;;;4.57;;
46589;SDS011;32313;48.722;9.362;2023-07-29T07:34:34;9.00;;;5.00;;
46589;SDS011;32313;48.722;9.362;2023-07-29T07:37:00;5.73;;;4.47;;
46589;SDS011;32313;48.722;9.362;2023-07-29T07:39:26;5.60;;;4.60;;
46589;SDS011;32313;48.722;9.362;2023-07-29T07:41:51;4.97;;;4.47;;
46589;SDS011;32313;48.722;9.362;2023-07-29T07:44:17;4.23;;;3.83;;
46589;SDS011;32313;48.722;9.362;2023-07-29T07:46:44;6.17;;;4.30;;
46589;SDS011;32313;48.722;9.362;2023-07-29T07:49:11;4.37;;;3.87;;
46589;SDS011;32313;48.722;9.362;2023-07-29T07:51:37;4.30;;;3.90;;
46589;SDS011;32313;48.722;9.362;2023-07-29T07:54:03;4.83;;;3.37;;
46589;SDS011;32313;48.722;9.362;2023-07-29T07:56:29;3.80;;;3.40;;
46589;SDS011;32313;48.722;9.362;2023-07-29T07:58:55;4.80;;;4.13;;
46589;SDS011;32313;48.722;9.362;2023-07-29T08:01:21;3.90;;;3.50;;
46589;SDS011;32313;48.722;9.362;2023-07-29T08:03:46;4.40;;;3.70;;
46589;SDS011;32313;48.722;9.362;2023-07-29T08:06:12;3.80;;;3.50;;
46589;SDS011;32313;48.722;9.362;2023-07-29T08:08:38;4.00;;;3.60;;
46589;SDS011;32313;48.722;9.362;2023-07-29T08:11:03;3.93;;;2.97;;
46589;SDS011;32313;48.722;9.362;2023-07-29T08:13:29;3.63;;;3.30;;
46589;SDS011;32313;48.722;9.362;2023-07-29T08:15:55;5.53;;;3.20;;
46589;SDS011;32313;48.722;9.362;2023-07-29T08:18:20;3.47;;;3.17;;
46589;SDS011;32313;48.722;9.362;2023-07-29T08:24:34;6.30;;;3.70;;
46589;SDS011;32313;48.722;9.362;2023-07-29T08:27:00;5.43;;;3.70;;
46589;SDS011;32313;48.722;9.362;2023-07-29T08:29:26;5.70;;;3.67;;
46589;SDS011;32313;48.722;9.362;2023-07-29T08:31:52;6.10;;;3.93;;
46589;SDS011;32313;48.722;9.362;2023-07-29T08:34:17;5.10;;;3.63;;
46589;SDS011;32313;48.722;9.362;2023-07-29T08:36:43;5.20;;;3.50;;
46589;SDS011;32313;48.722;9.362;2023-07-29T08:39:09;6.53;;;3.60;;
46589;SDS011;32313;48.722;9.362;2023-07-29T08:41:37;3.93;;;3.63;;
46589;SDS011;32313;48.722;9.362;2023-07-29T08:44:12;3.70;;;3.40;;
46589;SDS011;32313;48.722;9.362;2023-07-29T08:46:49;3.53;;;3.23;;
46589;SDS011;32313;48.722;9.362;2023-07-29T08:49:15;4.97;;;3.83;;
46589;SDS011;32313;48.722;9.362;2023-07-29T08:51:44;4.23;;;3.80;;
46589;SDS011;32313;48.722;9.362;2023-07-29T08:54:13;3.83;;;3.40;;
46589;SDS011;32313;48.722;9.362;2023-07-29T08:56:43;5.07;;;3.93;;
46589;SDS011;32313;48.722;9.362;2023-07-29T08:59:10;4.70;;;3.30;;
46589;SDS011;32313;48.722;9.362;2023-07-29T09:01:37;4.63;;;3.30;;
46589;SDS011;32313;48.722;9.362;2023-07-29T09:04:04;3.43;;;2.70;;
46589;SDS011;32313;48.722;9.362;2023-07-29T09:06:30;3.70;;;2.90;;
46589;SDS011;32313;48.722;9.362;2023-07-29T09:08:56;3.80;;;3.03;;
46589;SDS011;32313;48.722;9.362;2023-07-29T09:11:24;3.30;;;2.93;;
46589;SDS011;32313;48.722;9.362;2023-07-29T09:13:50;3.07;;;2.77;;
46589;SDS011;32313;48.722;9.362;2023-07-29T09:16:17;2.50;;;2.30;;
46589;SDS011;32313;48.722;9.362;2023-07-29T09:18:46;2.43;;;2.23;;
46589;SDS011;32313;48.722;9.362;2023-07-29T09:21:13;3.83;;;2.40;;
46589;SDS011;32313;48.722;9.362;2023-07-29T09:23:42;2.60;;;2.40;;
46589;SDS011;32313;48.722;9.362;2023-07-29T09:26:08;3.17;;;2.20;;
46589;SDS011;32313;48.722;9.362;2023-07-29T09:28:35;2.23;;;1.90;;
46589;SDS011;32313;48.722;9.362;2023-07-29T09:31:02;2.40;;;1.97;;
46589;SDS011;32313;48.722;9.362;2023-07-29T09:33:29;1.83;;;1.73;;
46589;SDS011;32313;48.722;9.362;2023-07-29T09:35:56;3.73;;;2.00;;
46589;SDS011;32313;48.722;9.362;2023-07-29T09:38:28;2.17;;;1.67;;
46589;SDS011;32313;48.722;9.362;2023-07-29T09:40:57;1.77;;;1.67;;
46589;SDS011;32313;48.722;9.362;2023-07-29T09:43:30;2.47;;;1.80;;
46589;SDS011;32313;48.722;9.362;2023-07-29T09:46:00;2.27;;;2.07;;
46589;SDS011;32313;48.722;9.362;2023-07-29T09:48:26;2.67;;;1.90;;
46589;SDS011;32313;48.722;9.362;2023-07-29T09:50:54;2.13;;;1.93;;
46589;SDS011;32313;48.722;9.362;2023-07-29T09:53:20;2.07;;;1.83;;
46589;SDS011;32313;48.722;9.362;2023-07-29T09:55:46;1.93;;;1.80;;
46589;SDS011;32313;48.722;9.362;2023-07-29T09:58:19;1.90;;;1.70;;
46589;SDS011;32313;48.722;9.362;2023-07-29T10:00:50;3.07;;;2.00;;
46589;SDS011;32313;48.722;9.362;2023-07-29T10:03:16;2.30;;;2.03;;
46589;SDS011;32313;48.722;9.362;2023-07-29T10:05:44;2.53;;;1.97;;
46589;SDS011;32313;48.722;9.362;2023-07-29T10:08:13;3.73;;;2.10;;
46589;SDS011;32313;48.722;9.362;2023-07-29T10:10:41;2.40;;;1.70;;
46589;SDS011;32313;48.722;9.362;2023-07-29T10:13:07;2.00;;;1.80;;
46589;SDS011;32313;48.722;9.362;2023-07-29T10:15:35;2.53;;;1.90;;
46589;SDS011;32313;48.722;9.362;2023-07-29T10:18:01;1.80;;;1.70;;
46589;SDS011;32313;48.722;9.362;2023-07-29T10:20:30;2.57;;;2.00;;
46589;SDS011;32313;48.722;9.362;2023-07-29T10:22:59;2.73;;;1.97;;
46589;SDS011;32313;48.722;9.362;2023-07-29T10:25:26;2.40;;;2.20;;
46589;SDS011;32313;48.722;9.362;2023-07-29T10:28:06;2.00;;;1.90;;
46589;SDS011;32313;48.722;9.362;2023-07-29T10:30:33;2.87;;;2.30;;
46589;SDS011;32313;48.722;9.362;2023-07-29T10:33:01;2.10;;;1.90;;
46589;SDS011;32313;48.722;9.362;2023-07-29T10:35:29;2.23;;;2.00;;
46589;SDS011;32313;48.722;9.362;2023-07-29T10:37:55;2.60;;;2.00;;
46589;SDS011;32313;48.722;9.362;2023-07-29T10:40:21;2.67;;;2.27;;
46589;SDS011;32313;48.722;9.362;2023-07-29T10:43:00;2.57;;;2.00;;
46589;SDS011;32313;48.722;9.362;2023-07-29T10:45:28;3.20;;;2.20;;
46589;SDS011;32313;48.722;9.362;2023-07-29T10:48:12;2.40;;;2.20;;
46589;SDS011;32313;48.722;9.362;2023-07-29T10:50:38;2.30;;;2.10;;
46589;SDS011;32313;48.722;9.362;2023-07-29T10:53:04;2.47;;;2.27;;
46589;SDS011;32313;48.722;9.362;2023-07-29T10:55:34;2.23;;;2.03;;
46589;SDS011;32313;48.722;9.362;2023-07-29T10:58:04;2.37;;;2.17;;
46589;SDS011;32313;48.722;9.362;2023-07-29T11:00:34;2.53;;;2.20;;
46589;SDS011;32313;48.722;9.362;2023-07-29T11:03:05;2.30;;;2.10;;
46589;SDS011;32313;48.722;9.362;2023-07-29T11:05:41;2.93;;;2.10;;
46589;SDS011;32313;48.722;9.362;2023-07-29T11:10:43;2.50;;;2.17;;
46589;SDS011;32313;48.722;9.362;2023-07-29T11:13:12;2.60;;;2.40;;
46589;SDS011;32313;48.722;9.362;2023-07-29T11:15:39;2.90;;;2.70;;
46589;SDS011;32313;48.722;9.362;2023-07-29T11:18:04;2.67;;;2.47;;
46589;SDS011;32313;48.722;9.362;2023-07-29T11:20:32;2.23;;;2.00;;
46589;SDS011;32313;48.722;9.362;2023-07-29T11:23:02;1.77;;;1.67;;
46589;SDS011;32313;48.722;9.362;2023-07-29T11:25:29;2.20;;;2.00;;
46589;SDS011;32313;48.722;9.362;2023-07-29T11:27:56;2.70;;;2.10;;
46589;SDS011;32313;48.722;9.362;2023-07-29T11:30:24;2.33;;;2.00;;
46589;SDS011;32313;48.722;9.362;2023-07-29T11:32:55;2.13;;;1.93;;
46589;SDS011;32313;48.722;9.362;2023-07-29T11:35:21;2.13;;;1.97;;
46589;SDS011;32313;48.722;9.362;2023-07-29T11:37:48;2.67;;;1.87;;
46589;SDS011;32313;48.722;9.362;2023-07-29T11:40:16;2.27;;;1.90;;
46589;SDS011;32313;48.722;9.362;2023-07-29T11:42:44;2.10;;;1.90;;
46589;SDS011;32313;48.722;9.362;2023-07-29T11:45:11;3.77;;;2.83;;
46589;SDS011;32313;48.722;9.362;2023-07-29T11:47:38;2.10;;;2.00;;
46589;SDS011;32313;48.722;9.362;2023-07-29T11:50:05;2.00;;;1.80;;
46589;SDS011;32313;48.722;9.362;2023-07-29T11:52:32;4.53;;;1.83;;
46589;SDS011;32313;48.722;9.362;2023-07-29T11:54:59;2.60;;;1.80;;
46589;SDS011;32313;48.722;9.362;2023-07-29T11:57:27;1.83;;;1.70;;
46589;SDS011;32313;48.722;9.362;2023-07-29T11:59:52;1.50;;;1.40;;
46589;SDS011;32313;48.722;9.362;2023-07-29T12:02:19;2.05;;;1.85;;
46589;SDS011;32313;48.722;9.362;2023-07-29T12:04:47;2.58;;;1.80;;
46589;SDS011;32313;48.722;9.362;2023-07-29T12:07:13;1.73;;;1.63;;
46589;SDS011;32313;48.722;9.362;2023-07-29T12:09:40;2.25;;;1.80;;
46589;SDS011;32313;48.722;9.362;2023-07-29T12:12:07;1.95;;;1.73;;
46589;SDS011;32313;48.722;9.362;2023-07-29T12:14:33;2.33;;;2.13;;
46589;SDS011;32313;48.722;9.362;2023-07-29T12:17:00;2.10;;;1.90;;
46589;SDS011;32313;48.722;9.362;2023-07-29T12:22:00;2.20;;;2.00;;
46589;SDS011;32313;48.722;9.362;2023-07-29T12:24:26;1.92;;;1.83;;
46589;SDS011;32313;48.722;9.362;2023-07-29T12:26:54;3.47;;;2.20;;
46589;SDS011;32313;48.722;9.362;2023-07-29T12:29:20;2.30;;;2.00;;
46589;SDS011;32313;48.722;9.362;2023-07-29T12:31:46;2.25;;;2.05;;
46589;SDS011;32313;48.722;9.362;2023-07-29T12:34:18;2.25;;;1.70;;
46589;SDS011;32313;48.722;9.362;2023-07-29T12:36:46;2.42;;;2.05;;
46589;SDS011;32313;48.722;9.362;2023-07-29T12:39:19;2.22;;;1.90;;
46589;SDS011;32313;48.722;9.362;2023-07-29T12:41:45;2.08;;;1.88;;
46589;SDS011;32313;48.722;9.362;2023-07-29T12:44:11;1.83;;;1.73;;
46589;SDS011;32313;48.722;9.362;2023-07-29T12:46:37;2.42;;;1.90;;
46589;SDS011;32313;48.722;9.362;2023-07-29T12:49:03;2.40;;;2.20;;
46589;SDS011;32313;48.722;9.362;2023-07-29T12:51:29;1.83;;;1.73;;
46589;SDS011;32313;48.722;9.362;2023-07-29T12:53:54;2.20;;;1.88;;
46589;SDS011;32313;48.722;9.362;2023-07-29T12:56:20;2.08;;;1.98;;
46589;SDS011;32313;48.722;9.362;2023-07-29T12:58:46;2.20;;;1.95;;
46589;SDS011;32313;48.722;9.362;2023-07-29T13:01:11;2.20;;;2.00;;
46589;SDS011;32313;48.722;9.362;2023-07-29T13:03:43;2.00;;;1.80;;
46589;SDS011;32313;48.722;9.362;2023-07-29T13:06:09;2.22;;;2.03;;
46589;SDS011;32313;48.722;9.362;2023-07-29T13:08:35;2.28;;;1.88;;
46589;SDS011;32313;48.722;9.362;2023-07-29T13:11:01;1.83;;;1.73;;
46589;SDS011;32313;48.722;9.362;2023-07-29T13:13:27;3.08;;;1.98;;
46589;SDS011;32313;48.722;9.362;2023-07-29T13:15:52;1.90;;;1.80;;
46589;SDS011;32313;48.722;9.362;2023-07-29T13:18:18;2.20;;;2.10;;
46589;SDS011;32313;48.722;9.362;2023-07-29T13:20:44;1.88;;;1.77;;
46589;SDS011;32313;48.722;9.362;2023-07-29T13:23:09;2.17;;;2.00;;
46589;SDS011;32313;48.722;9.362;2023-07-29T13:25:35;2.03;;;1.90;;
46589;SDS011;32313;48.722;9.362;2023-07-29T13:28:01;2.42;;;2.22;;
46589;SDS011;32313;48.722;9.362;2023-07-29T13:30:26;2.35;;;2.15;;
46589;SDS011;32313;48.722;9.362;2023-07-29T13:32:52;2.33;;;2.13;;
46589;SDS011;32313;48.722;9.362;2023-07-29T13:35:18;2.38;;;2.10;;
46589;SDS011;32313;48.722;9.362;2023-07-29T13:37:45;3.13;;;2.55;;
46589;SDS011;32313;48.722;9.362;2023-07-29T13:40:11;2.15;;;2.05;;
46589;SDS011;32313;48.722;9.362;2023-07-29T13:42:36;2.80;;;2.40;;
46589;SDS011;32313;48.722;9.362;2023-07-29T13:45:02;4.03;;;2.25;;
46589;SDS011;32313;48.722;9.362;2023-07-29T13:47:28;3.13;;;1.95;;
46589;SDS011;32313;48.722;9.362;2023-07-29T13:49:54;3.95;;;1.80;;
46589;SDS011;32313;48.722;9.362;2023-07-29T13:52:20;2.70;;;2.05;;
46589;SDS011;32313;48.722;9.362;2023-07-29T13:54:45;2.20;;;2.00;;
46589;SDS011;32313;48.722;9.362;2023-07-29T13:57:11;2.78;;;2.13;;
46589;SDS011;32313;48.722;9.362;2023-07-29T13:59:37;2.25;;;2.10;;
46589;SDS011;32313;48.722;9.362;2023-07-29T14:02:05;2.35;;;2.05;;
46589;SDS011;32313;48.722;9.362;2023-07-29T14:04:32;2.83;;;2.20;;
46589;SDS011;32313;48.722;9.362;2023-07-29T14:06:58;2.33;;;1.65;;
46589;SDS011;32313;48.722;9.362;2023-07-29T14:09:24;2.90;;;2.00;;
46589;SDS011;32313;48.722;9.362;2023-07-29T14:11:51;2.30;;;2.10;;
46589;SDS011;32313;48.722;9.362;2023-07-29T14:14:16;2.17;;;2.05;;
46589;SDS011;32313;48.722;9.362;2023-07-29T14:16:42;2.35;;;2.15;;
46589;SDS011;32313;48.722;9.362;2023-07-29T14:19:08;2.17;;;2.07;;
46589;SDS011;32313;48.722;9.362;2023-07-29T14:21:33;2.10;;;1.92;;
46589;SDS011;32313;48.722;9.362;2023-07-29T14:23:59;2.03;;;1.90;;
46589;SDS011;32313;48.722;9.362;2023-07-29T14:26:25;2.27;;;2.07;;
46589;SDS011;32313;48.722;9.362;2023-07-29T14:28:51;2.30;;;2.20;;
46589;SDS011;32313;48.722;9.362;2023-07-29T14:31:17;3.97;;;2.10;;
46589;SDS011;32313;48.722;9.362;2023-07-29T14:33:43;2.43;;;2.23;;
46589;SDS011;32313;48.722;9.362;2023-07-29T14:36:09;2.37;;;2.10;;
46589;SDS011;32313;48.722;9.362;2023-07-29T14:38:35;3.10;;;2.40;;
46589;SDS011;32313;48.722;9.362;2023-07-29T14:41:01;2.20;;;1.90;;
46589;SDS011;32313;48.722;9.362;2023-07-29T14:43:30;1.83;;;1.73;;
46589;SDS011;32313;48.722;9.362;2023-07-29T14:45:56;2.20;;;2.00;;
46589;SDS011;32313;48.722;9.362;2023-07-29T14:48:22;2.45;;;2.25;;
46589;SDS011;32313;48.722;9.362;2023-07-29T14:50:48;3.28;;;2.58;;
46589;SDS011;32313;48.722;9.362;2023-07-29T14:53:14;2.15;;;1.90;;
46589;SDS011;32313;48.722;9.362;2023-07-29T14:55:40;2.07;;;1.97;;